OIAG 
Aghajari Airport
Iran 
ICAOStatus
OIAGOperational
LatitudeLongitude
30° 44' 39" N49° 40' 37" E
30.74440049.677200
Local Time (DST+5)UTC (GMT+4)
04-23-2014 02:59 pm04-23-2014 10:29
Sunrise-SunsetLocalUTC
Begin Civil Twilight06:08 am01:38
Sunrise06:33 am02:03
Sunset07:45 pm15:15
End Civil Twilight08:10 pm15:40

Current Weather

METARObservedFlight Conditions

OIAG 231000Z 12010KT 9999 FEW040 SCT100 37/07 Q1010

Wed, Apr 23, 2014 @ 10:00 UTC(Z)

(29 Minutes ago)

VFR

(Visual Flight Rules)

WindVisibilityCloudsConditions
120° at 10 knots (19 kph)
10 km or more
  • Few at 4,000' AGL
  • Scattered at 10,000' AGL
  • No significant weather
TemperaturesReadingsPrecipitation
Current Temp37°C (99°F)
Dewpoint7°C (45°F)
Humidity16%
Altimeter29.82"Hg
Sea Level Pressure1010mb
Field Elevation95.14'
None Recorded

Additional weather within a 92.6km radius of OIAG

Location METAR
OIAM

54.4km W (248°)

29 minutes ago
VFR VFR    MVFR MVFR    IFR IFR    LIFR LIFR    Unknown Unknown

Previous 24 hour Weather Graphs

  Loading...

CheckWX.com is intended as a tool to help pilots better visualize weather data.   It is not intended as a substitute for an official weather briefing obtained from a Flight Service Station.
CheckWX.com does not meet the FAA requirements for an official pre-flight weather briefing.   Therefore, it's important that pilots still call and obtain an official FSS pre-flight weather briefing.